createdAt,value
2017-06-03T00:01:06.638Z,16.70
2017-06-03T00:03:40.802Z,17.20
2017-06-03T00:06:16.557Z,17.00
2017-06-03T00:08:50.684Z,16.87
2017-06-03T00:11:24.877Z,16.00
2017-06-03T00:13:59.027Z,16.90
2017-06-03T00:16:33.292Z,16.30
2017-06-03T00:19:07.460Z,16.40
2017-06-03T00:21:41.533Z,17.63
2017-06-03T00:24:15.723Z,17.00
2017-06-03T00:26:49.790Z,17.23
2017-06-03T00:29:24.000Z,17.70
2017-06-03T00:31:58.334Z,18.87
2017-06-03T00:34:32.381Z,21.27
2017-06-03T00:37:06.474Z,17.40
2017-06-03T00:39:40.622Z,19.10
2017-06-03T00:42:14.817Z,18.47
2017-06-03T00:44:48.940Z,17.37
2017-06-03T00:47:23.006Z,16.20
2017-06-03T00:49:57.243Z,19.57
2017-06-03T00:52:31.717Z,18.40
2017-06-03T00:55:05.985Z,17.57
2017-06-03T00:57:40.135Z,16.00
2017-06-03T01:00:14.499Z,17.53
2017-06-03T01:02:48.756Z,19.87
2017-06-03T01:05:23.157Z,18.50
2017-06-03T01:07:57.429Z,18.13
2017-06-03T01:10:31.707Z,18.27
2017-06-03T01:13:06.042Z,17.13
2017-06-03T01:15:40.077Z,18.00
2017-06-03T01:18:14.365Z,18.97
2017-06-03T01:20:48.633Z,19.10
2017-06-03T01:23:22.786Z,19.40
2017-06-03T01:25:57.132Z,19.03
2017-06-03T01:28:31.306Z,20.30
2017-06-03T01:31:05.442Z,18.40
2017-06-03T01:33:39.587Z,19.73
2017-06-03T01:36:13.899Z,19.53
2017-06-03T01:38:48.016Z,19.63
2017-06-03T01:41:22.289Z,17.77
2017-06-03T01:43:56.445Z,19.40
2017-06-03T01:46:30.533Z,20.10
2017-06-03T01:49:04.788Z,18.97
2017-06-03T01:51:53.813Z,20.97
2017-06-03T01:54:27.960Z,19.67
2017-06-03T01:57:02.304Z,20.40
2017-06-03T01:59:36.643Z,19.60
2017-06-03T02:02:10.864Z,19.30
2017-06-03T02:04:45.242Z,20.80
2017-06-03T02:07:19.393Z,19.17
2017-06-03T02:09:53.645Z,19.80
2017-06-03T02:12:27.690Z,19.20
2017-06-03T02:15:02.049Z,17.93
2017-06-03T02:17:36.295Z,17.63
2017-06-03T02:20:10.429Z,16.87
2017-06-03T02:22:44.620Z,18.37
2017-06-03T02:25:18.758Z,17.50
2017-06-03T02:27:52.940Z,16.47
2017-06-03T02:30:27.001Z,16.90
2017-06-03T02:33:01.108Z,17.17
2017-06-03T02:35:35.336Z,17.70
2017-06-03T02:38:09.390Z,18.10
2017-06-03T02:40:43.739Z,19.33
2017-06-03T02:43:17.954Z,18.00
2017-06-03T02:45:52.216Z,18.93
2017-06-03T02:48:26.495Z,18.90
2017-06-03T02:51:00.781Z,18.73
2017-06-03T02:53:34.864Z,18.63
2017-06-03T02:56:09.136Z,18.90
2017-06-03T02:58:43.328Z,18.93
2017-06-03T03:01:17.692Z,18.73
2017-06-03T03:03:51.751Z,18.00
2017-06-03T03:06:25.933Z,19.30
2017-06-03T03:09:00.065Z,20.33
2017-06-03T03:11:34.259Z,19.93
2017-06-03T03:14:08.582Z,20.87
2017-06-03T03:16:42.697Z,20.60
2017-06-03T03:19:16.753Z,20.73
2017-06-03T03:21:50.822Z,18.93
2017-06-03T03:24:25.048Z,18.37
2017-06-03T03:26:59.394Z,20.30
2017-06-03T03:29:33.533Z,19.73
2017-06-03T03:32:07.876Z,20.20
2017-06-03T03:34:42.126Z,20.80
2017-06-03T03:37:16.227Z,20.13
2017-06-03T03:39:50.514Z,20.13
2017-06-03T03:42:24.654Z,18.93
2017-06-03T03:44:58.729Z,21.60
2017-06-03T03:47:32.792Z,19.57
2017-06-03T03:50:07.048Z,18.87
2017-06-03T03:52:41.326Z,19.70
2017-06-03T03:55:15.597Z,20.00
2017-06-03T03:57:49.772Z,18.87
2017-06-03T04:00:24.183Z,19.03
2017-06-03T04:02:58.275Z,18.20
2017-06-03T04:05:32.601Z,18.37
2017-06-03T04:08:06.737Z,18.03
2017-06-03T04:10:40.793Z,19.03
2017-06-03T04:13:14.987Z,19.37
2017-06-03T04:15:49.092Z,19.60
2017-06-03T04:18:23.132Z,21.00
2017-06-03T04:20:57.401Z,19.30
2017-06-03T04:23:31.627Z,18.43
2017-06-03T04:26:05.884Z,19.40
2017-06-03T04:28:40.185Z,19.60
2017-06-03T04:31:14.492Z,19.73
2017-06-03T04:33:48.662Z,16.70
2017-06-03T04:36:23.061Z,18.33
2017-06-03T04:38:57.876Z,19.83
2017-06-03T04:41:32.008Z,17.73
2017-06-03T04:44:06.112Z,19.13
2017-06-03T04:46:40.317Z,18.43
2017-06-03T04:49:14.619Z,19.60
2017-06-03T04:51:48.964Z,17.77
2017-06-03T04:54:23.069Z,17.30
2017-06-03T04:56:57.107Z,14.47
2017-06-03T04:59:31.349Z,15.53
2017-06-03T05:02:05.464Z,15.97
2017-06-03T05:04:39.557Z,16.27
2017-06-03T05:07:13.707Z,15.97
2017-06-03T05:09:47.754Z,14.60
2017-06-03T05:12:21.955Z,14.50
2017-06-03T05:14:56.191Z,14.43
2017-06-03T05:17:30.341Z,13.73
2017-06-03T05:20:04.500Z,14.73
2017-06-03T05:22:38.783Z,15.13
2017-06-03T05:25:12.974Z,14.27
2017-06-03T05:27:47.278Z,13.70
2017-06-03T05:30:21.692Z,13.77
2017-06-03T05:32:55.873Z,14.27
2017-06-03T05:35:30.036Z,13.53
2017-06-03T05:38:04.467Z,14.07
2017-06-03T05:40:38.623Z,12.70
2017-06-03T05:43:12.836Z,13.37
2017-06-03T05:45:47.356Z,13.30
2017-06-03T05:48:21.609Z,13.57
2017-06-03T05:50:55.880Z,13.80
2017-06-03T05:53:30.020Z,12.77
2017-06-03T05:56:04.121Z,12.53
2017-06-03T05:58:38.293Z,12.97
2017-06-03T06:01:12.518Z,13.17
2017-06-03T06:03:46.738Z,12.27
2017-06-03T06:06:20.933Z,12.60
2017-06-03T06:08:55.155Z,12.57
2017-06-03T06:11:29.374Z,12.27
2017-06-03T06:14:03.657Z,11.33
2017-06-03T06:16:37.767Z,13.70
2017-06-03T06:19:11.803Z,14.30
2017-06-03T06:21:45.888Z,12.47
2017-06-03T06:24:20.146Z,12.07
2017-06-03T06:26:54.148Z,12.30
2017-06-03T06:29:28.220Z,13.87
2017-06-03T06:32:02.257Z,11.00
2017-06-03T06:34:36.327Z,11.93
2017-06-03T06:37:10.559Z,11.70
2017-06-03T06:39:44.812Z,11.63
2017-06-03T06:42:19.251Z,11.93
2017-06-03T06:44:53.302Z,12.17
2017-06-03T06:47:27.501Z,11.17
2017-06-03T06:50:01.905Z,11.40
2017-06-03T06:52:36.014Z,10.80
2017-06-03T06:55:10.182Z,10.87
2017-06-03T06:57:44.342Z,10.70
2017-06-03T07:00:18.603Z,11.40
2017-06-03T07:02:52.666Z,11.77
2017-06-03T07:05:26.728Z,10.80
2017-06-03T07:08:00.911Z,11.33
2017-06-03T07:10:35.114Z,11.40
2017-06-03T07:13:09.202Z,10.37
2017-06-03T07:15:43.296Z,12.30
2017-06-03T07:18:17.609Z,11.03
2017-06-03T07:20:51.660Z,11.10
2017-06-03T07:23:25.812Z,10.37
2017-06-03T07:25:59.849Z,10.70
2017-06-03T07:28:34.002Z,11.43
2017-06-03T07:31:08.090Z,10.57
2017-06-03T07:33:42.382Z,11.03
2017-06-03T07:36:16.695Z,11.50
2017-06-03T07:38:52.365Z,12.50
2017-06-03T07:41:26.599Z,10.97
2017-06-03T07:44:00.739Z,11.67
2017-06-03T07:46:34.951Z,10.57
2017-06-03T07:49:09.204Z,11.27
2017-06-03T07:51:43.373Z,10.60
2017-06-03T07:54:17.570Z,10.63
2017-06-03T07:56:51.716Z,10.07
2017-06-03T07:59:25.786Z,10.53
2017-06-03T08:01:59.937Z,10.30
2017-06-03T08:04:34.015Z,10.43
2017-06-03T08:07:08.364Z,12.87
2017-06-03T08:09:42.529Z,10.27
2017-06-03T08:12:16.807Z,9.20
2017-06-03T08:14:50.962Z,10.90
2017-06-03T08:17:25.113Z,10.50
2017-06-03T08:19:59.217Z,9.57
2017-06-03T08:22:33.448Z,10.97
2017-06-03T08:25:07.681Z,9.87
2017-06-03T08:27:41.817Z,10.00
2017-06-03T08:30:15.849Z,11.40
2017-06-03T08:32:50.024Z,10.57
2017-06-03T08:35:24.181Z,10.83
2017-06-03T08:37:58.354Z,10.77
2017-06-03T08:40:32.561Z,10.87
2017-06-03T08:43:06.634Z,10.93
2017-06-03T08:45:40.805Z,10.73
2017-06-03T08:48:14.942Z,10.33
2017-06-03T08:50:48.952Z,12.47
2017-06-03T08:53:23.089Z,10.67
2017-06-03T08:55:57.135Z,10.97
2017-06-03T08:58:31.338Z,11.97
2017-06-03T09:01:05.492Z,10.90
2017-06-03T09:03:39.672Z,10.30
2017-06-03T09:06:13.909Z,12.10
2017-06-03T09:08:48.182Z,10.63
2017-06-03T09:11:22.524Z,10.17
2017-06-03T09:13:56.595Z,11.17
2017-06-03T09:16:30.740Z,10.57
2017-06-03T09:19:04.980Z,11.37
2017-06-03T09:21:39.121Z,10.03
2017-06-03T09:24:13.457Z,11.53
2017-06-03T09:26:47.516Z,10.13
2017-06-03T09:29:21.625Z,10.93
2017-06-03T09:31:55.763Z,10.57
2017-06-03T09:34:30.002Z,10.70
2017-06-03T09:37:03.997Z,10.23
2017-06-03T09:39:38.139Z,11.67
2017-06-03T09:42:12.274Z,11.07
2017-06-03T09:44:46.434Z,10.30
2017-06-03T09:47:20.605Z,10.57
2017-06-03T09:49:54.617Z,13.67
2017-06-03T09:52:28.756Z,10.80
2017-06-03T09:55:02.892Z,12.73
2017-06-03T09:57:37.037Z,10.73
2017-06-03T10:00:11.319Z,11.00
2017-06-03T10:02:45.577Z,12.20
2017-06-03T10:05:19.881Z,10.80
2017-06-03T10:07:54.111Z,10.80
2017-06-03T10:10:28.300Z,11.53
2017-06-03T10:13:02.551Z,11.00
2017-06-03T10:15:36.718Z,11.80
2017-06-03T10:18:10.920Z,9.97
2017-06-03T10:20:45.186Z,13.60
2017-06-03T10:23:19.458Z,13.43
2017-06-03T10:25:53.564Z,10.10
2017-06-03T10:28:27.751Z,10.77
2017-06-03T10:31:01.881Z,10.40
2017-06-03T10:33:36.076Z,9.90
2017-06-03T10:36:10.157Z,12.13
2017-06-03T10:38:44.190Z,10.57
2017-06-03T10:41:18.425Z,10.30
2017-06-03T10:43:52.578Z,10.80
2017-06-03T10:46:26.745Z,10.30
2017-06-03T10:49:00.889Z,10.20
2017-06-03T10:51:35.000Z,10.10
2017-06-03T10:54:09.042Z,10.30
2017-06-03T10:56:43.189Z,10.87
2017-06-03T10:59:17.303Z,11.17
2017-06-03T11:01:51.488Z,9.87
2017-06-03T11:04:25.744Z,9.70
2017-06-03T11:06:59.874Z,10.00
2017-06-03T11:09:34.184Z,11.10
2017-06-03T11:12:08.462Z,10.23
2017-06-03T11:14:42.740Z,10.50
2017-06-03T11:17:16.955Z,10.50
2017-06-03T11:19:51.122Z,10.83
2017-06-03T11:22:25.465Z,9.93
2017-06-03T11:24:59.491Z,10.17
2017-06-03T11:27:33.824Z,11.70
2017-06-03T11:30:08.170Z,10.53
2017-06-03T11:32:42.429Z,11.13
2017-06-03T11:35:16.600Z,11.30
2017-06-03T11:37:51.012Z,11.00
2017-06-03T11:40:25.236Z,10.23
2017-06-03T11:42:59.473Z,11.37
2017-06-03T11:45:33.736Z,11.53
2017-06-03T11:48:07.870Z,11.17
2017-06-03T11:50:42.101Z,10.90
2017-06-03T11:53:16.250Z,11.87
2017-06-03T11:55:50.496Z,11.43
2017-06-03T11:58:24.726Z,11.70
2017-06-03T12:00:58.757Z,11.60
2017-06-03T12:03:32.976Z,12.17
2017-06-03T12:06:07.184Z,12.37
2017-06-03T12:08:41.437Z,11.90
2017-06-03T12:11:15.642Z,11.80
2017-06-03T12:13:49.794Z,11.73
2017-06-03T12:16:24.097Z,10.90
2017-06-03T12:18:58.395Z,11.80
2017-06-03T12:21:32.692Z,11.30
2017-06-03T12:24:06.765Z,11.93
2017-06-03T12:26:40.967Z,11.37
2017-06-03T12:29:15.239Z,10.40
2017-06-03T12:31:49.479Z,11.67
2017-06-03T12:34:23.597Z,10.77
2017-06-03T12:36:57.767Z,10.63
2017-06-03T12:39:31.920Z,10.83
2017-06-03T12:42:06.139Z,10.27
2017-06-03T12:44:40.292Z,10.30
2017-06-03T12:47:14.534Z,10.10
2017-06-03T12:49:48.741Z,9.90
2017-06-03T12:52:22.943Z,9.70
2017-06-03T12:54:57.220Z,9.57
2017-06-03T12:57:31.381Z,12.40
2017-06-03T13:00:05.621Z,12.10
2017-06-03T13:02:40.104Z,10.13
2017-06-03T13:05:14.434Z,9.70
2017-06-03T13:07:48.803Z,10.40
2017-06-03T13:10:23.137Z,10.27
2017-06-03T13:12:57.379Z,10.20
2017-06-03T13:15:31.807Z,9.77
2017-06-03T13:18:06.021Z,10.40
2017-06-03T13:20:40.126Z,9.57
2017-06-03T13:23:14.385Z,10.17
2017-06-03T13:25:48.550Z,9.13
2017-06-03T13:28:22.834Z,9.20
2017-06-03T13:30:57.092Z,9.20
2017-06-03T13:33:31.346Z,8.97
2017-06-03T13:36:05.450Z,9.00
2017-06-03T13:41:54.681Z,8.70
2017-06-03T13:44:28.803Z,8.40
2017-06-03T13:47:02.940Z,10.50
2017-06-03T13:49:37.020Z,10.10
2017-06-03T13:52:11.281Z,19.60
2017-06-03T13:54:45.339Z,9.77
2017-06-03T13:57:19.536Z,10.43
2017-06-03T13:59:53.589Z,9.10
2017-06-03T14:03:04.711Z,10.00
2017-06-03T14:05:38.747Z,9.40
2017-06-03T14:08:12.907Z,9.67
2017-06-03T14:14:01.525Z,8.90
2017-06-03T14:16:35.599Z,9.37
2017-06-03T14:19:09.980Z,7.80
2017-06-03T14:21:44.071Z,7.77
2017-06-03T14:24:18.187Z,8.43
2017-06-03T14:26:52.219Z,8.13
2017-06-03T14:29:26.356Z,7.67
2017-06-03T14:32:00.382Z,8.30
2017-06-03T14:34:34.487Z,8.27
2017-06-03T14:37:08.526Z,8.93
2017-06-03T14:42:57.931Z,9.23
2017-06-03T14:45:32.119Z,8.57
2017-06-03T14:48:06.200Z,9.47
2017-06-03T14:50:40.211Z,9.07
2017-06-03T14:53:14.485Z,8.67
2017-06-03T14:55:48.520Z,9.00
2017-06-03T15:01:37.491Z,8.70
2017-06-03T15:04:11.508Z,9.23
2017-06-03T15:06:45.578Z,8.70
2017-06-03T15:09:19.776Z,9.37
2017-06-03T15:11:53.973Z,9.53
2017-06-03T15:14:28.119Z,9.07
2017-06-03T15:17:02.188Z,9.40
2017-06-03T15:19:36.353Z,9.57
2017-06-03T15:22:10.427Z,10.07
2017-06-03T15:24:44.460Z,10.00
2017-06-03T15:27:18.589Z,10.63
2017-06-03T15:29:52.697Z,9.97
2017-06-03T15:32:26.844Z,11.57
2017-06-03T15:35:00.964Z,11.27
2017-06-03T15:37:35.181Z,11.50
2017-06-03T15:40:09.191Z,11.30
2017-06-03T15:42:43.390Z,11.60
2017-06-03T15:45:17.652Z,11.87
2017-06-03T15:47:51.821Z,11.87
2017-06-03T15:50:25.903Z,11.63
2017-06-03T15:52:59.970Z,10.90
2017-06-03T15:55:34.009Z,11.50
2017-06-03T15:58:08.153Z,11.50
2017-06-03T16:00:42.867Z,11.80
2017-06-03T16:03:16.856Z,12.17
2017-06-03T16:05:51.007Z,11.20
2017-06-03T16:08:25.047Z,11.53
2017-06-03T16:10:59.113Z,11.73
2017-06-03T16:13:33.316Z,12.10
2017-06-03T16:19:22.339Z,11.07
2017-06-03T16:21:56.453Z,11.30
2017-06-03T16:24:31.215Z,11.80
2017-06-03T16:27:05.279Z,11.30
2017-06-03T16:29:39.442Z,10.20
2017-06-03T16:32:13.671Z,11.47
2017-06-03T16:34:47.859Z,11.13
2017-06-03T16:37:22.004Z,15.90
2017-06-03T16:39:56.141Z,11.40
2017-06-03T16:45:44.513Z,9.30
2017-06-03T16:48:18.732Z,9.60
2017-06-03T16:50:52.898Z,10.20
2017-06-03T16:53:27.113Z,9.77
2017-06-03T16:56:01.144Z,9.90
2017-06-03T16:58:35.275Z,11.33
2017-06-03T17:04:24.013Z,10.30
2017-06-03T17:06:58.029Z,10.70
2017-06-03T17:09:32.250Z,10.60
2017-06-03T17:12:06.347Z,10.13
2017-06-03T17:14:40.435Z,10.13
2017-06-03T17:17:14.652Z,10.83
2017-06-03T17:19:48.663Z,11.33
2017-06-03T17:22:23.912Z,11.53
2017-06-03T17:24:57.932Z,10.23
2017-06-03T17:27:32.141Z,10.80
2017-06-03T17:30:06.277Z,11.67
2017-06-03T17:32:40.417Z,11.43
2017-06-03T17:35:14.484Z,11.77
2017-06-03T17:37:48.478Z,11.63
2017-06-03T17:40:22.571Z,11.47
2017-06-03T17:42:56.708Z,10.93
2017-06-03T17:45:30.861Z,11.13
2017-06-03T17:48:04.893Z,11.83
2017-06-03T17:50:39.145Z,12.57
2017-06-03T17:53:13.326Z,11.63
2017-06-03T17:55:47.351Z,11.43
2017-06-03T17:58:21.572Z,11.37
2017-06-03T18:00:56.078Z,11.53
2017-06-03T18:03:30.085Z,12.37
2017-06-03T18:06:04.255Z,12.17
2017-06-03T18:08:38.448Z,13.00
2017-06-03T18:11:12.671Z,12.40
2017-06-03T18:13:46.925Z,12.23
2017-06-03T18:16:21.068Z,13.00
2017-06-03T18:18:55.260Z,13.17
2017-06-03T18:24:43.832Z,13.13
2017-06-03T18:27:24.015Z,12.70
2017-06-03T18:29:58.057Z,12.30
2017-06-03T18:32:32.207Z,12.03
2017-06-03T18:35:06.429Z,13.50
2017-06-03T18:37:40.597Z,14.37
2017-06-03T18:40:14.756Z,13.80
2017-06-03T18:42:48.812Z,13.93
2017-06-03T18:45:22.999Z,13.30
2017-06-03T18:47:57.027Z,13.80
2017-06-03T18:50:31.044Z,14.73
2017-06-03T18:53:05.123Z,14.00
2017-06-03T18:58:54.474Z,14.20
2017-06-03T19:04:43.213Z,14.50
2017-06-03T19:07:17.904Z,13.37
2017-06-03T19:09:51.987Z,14.20
2017-06-03T19:12:26.249Z,13.90
2017-06-03T19:15:00.391Z,14.00
2017-06-03T19:17:34.572Z,13.73
2017-06-03T19:20:08.748Z,14.50
2017-06-03T19:22:42.935Z,16.00
2017-06-03T19:25:17.040Z,15.63
2017-06-03T19:27:51.060Z,14.73
2017-06-03T19:30:25.317Z,14.77
2017-06-03T19:32:59.338Z,14.33
2017-06-03T19:35:33.666Z,20.57
2017-06-03T19:38:07.714Z,15.33
2017-06-03T19:40:41.925Z,15.20
2017-06-03T19:43:16.101Z,16.00
2017-06-03T19:45:50.461Z,15.60
2017-06-03T19:48:24.579Z,15.60
2017-06-03T19:50:58.748Z,15.40
2017-06-03T19:53:32.920Z,16.70
2017-06-03T19:56:07.016Z,16.57
2017-06-03T19:58:41.237Z,15.43
2017-06-03T20:01:15.440Z,16.20
2017-06-03T20:03:49.472Z,15.40
2017-06-03T20:06:23.549Z,15.50
2017-06-03T20:08:57.606Z,15.03
2017-06-03T20:11:31.769Z,16.20
2017-06-03T20:14:06.463Z,15.07
2017-06-03T20:16:40.628Z,14.80
2017-06-03T20:19:14.710Z,15.50
2017-06-03T20:21:48.764Z,16.37
2017-06-03T20:24:22.865Z,16.00
2017-06-03T20:26:57.091Z,14.90
2017-06-03T20:29:31.365Z,16.27
2017-06-03T20:32:05.431Z,18.70
2017-06-03T20:34:39.587Z,15.17
2017-06-03T20:37:13.567Z,16.27
2017-06-03T20:39:47.724Z,15.87
2017-06-03T20:42:21.922Z,16.70
2017-06-03T20:48:10.560Z,16.73
2017-06-03T20:50:44.615Z,15.90
2017-06-03T20:53:18.807Z,17.13
2017-06-03T20:55:52.891Z,16.17
2017-06-03T20:58:26.972Z,16.00
2017-06-03T21:04:16.392Z,15.83
2017-06-03T21:06:50.494Z,16.93
2017-06-03T21:09:24.655Z,16.53
2017-06-03T21:11:58.792Z,17.57
2017-06-03T21:14:33.702Z,15.47
2017-06-03T21:17:07.859Z,17.20
2017-06-03T21:19:41.877Z,15.83
2017-06-03T21:22:16.131Z,19.23
2017-06-03T21:24:50.184Z,17.57
2017-06-03T21:27:24.306Z,16.80
2017-06-03T21:29:58.328Z,16.83
2017-06-03T21:32:32.560Z,16.70
2017-06-03T21:35:06.762Z,16.23
2017-06-03T21:37:41.031Z,15.47
2017-06-03T21:40:15.216Z,16.70
2017-06-03T21:42:49.275Z,16.40
2017-06-03T21:45:23.487Z,16.03
2017-06-03T21:47:57.540Z,16.60
2017-06-03T21:50:31.556Z,16.90
2017-06-03T21:53:05.590Z,16.20
2017-06-03T21:55:39.821Z,16.37
2017-06-03T21:58:14.048Z,16.43
2017-06-03T22:00:48.212Z,15.37
2017-06-03T22:03:22.453Z,16.53
2017-06-03T22:05:56.630Z,16.20
2017-06-03T22:08:30.764Z,18.37
2017-06-03T22:11:04.813Z,16.37
2017-06-03T22:13:38.981Z,17.10
2017-06-03T22:16:13.116Z,17.33
2017-06-03T22:18:47.320Z,15.80
2017-06-03T22:24:36.067Z,16.43
2017-06-03T22:27:10.126Z,16.53
2017-06-03T22:29:44.308Z,16.33
2017-06-03T22:32:18.563Z,19.23
2017-06-03T22:34:52.807Z,15.67
2017-06-03T22:37:26.960Z,15.20
2017-06-03T22:40:01.021Z,15.83
2017-06-03T22:42:35.168Z,16.13
2017-06-03T22:45:09.166Z,16.27
2017-06-03T22:47:43.308Z,15.27
2017-06-03T22:53:31.757Z,17.00
2017-06-03T22:56:05.816Z,15.90
2017-06-03T22:58:39.912Z,15.80
2017-06-03T23:04:29.495Z,15.93
2017-06-03T23:07:03.504Z,16.37
2017-06-03T23:09:37.711Z,14.23
2017-06-03T23:12:11.791Z,15.47
2017-06-03T23:14:45.933Z,14.33
2017-06-03T23:17:20.123Z,14.60
2017-06-03T23:19:54.321Z,15.40
2017-06-03T23:22:28.523Z,15.97
2017-06-03T23:25:02.593Z,13.87
2017-06-03T23:27:36.761Z,13.20
2017-06-03T23:30:10.810Z,14.17
2017-06-03T23:32:44.980Z,13.60
2017-06-03T23:35:19.065Z,14.77
2017-06-03T23:37:53.166Z,14.30
2017-06-03T23:40:27.352Z,14.50
2017-06-03T23:43:01.443Z,13.80
2017-06-03T23:45:35.610Z,14.33
2017-06-03T23:48:09.823Z,15.63
2017-06-03T23:50:44.006Z,13.23
2017-06-03T23:53:18.197Z,13.80
2017-06-03T23:55:52.217Z,14.23
2017-06-03T23:58:26.323Z,14.20
